sensor_id;sensor_type;location;lat;lon;timestamp;P1;durP1;ratioP1;P2;durP2;ratioP2
20535;SDS011;10426;49.420;8.390;2022-11-25T00:01:51;8.57;;;5.32;;
20535;SDS011;10426;49.420;8.390;2022-11-25T00:04:18;10.93;;;5.50;;
20535;SDS011;10426;49.420;8.390;2022-11-25T00:06:44;12.10;;;5.25;;
20535;SDS011;10426;49.420;8.390;2022-11-25T00:09:11;9.85;;;5.25;;
20535;SDS011;10426;49.420;8.390;2022-11-25T00:11:40;10.05;;;5.35;;
20535;SDS011;10426;49.420;8.390;2022-11-25T00:14:07;11.50;;;5.40;;
20535;SDS011;10426;49.420;8.390;2022-11-25T00:16:35;11.18;;;5.47;;
20535;SDS011;10426;49.420;8.390;2022-11-25T00:19:02;10.07;;;5.20;;
20535;SDS011;10426;49.420;8.390;2022-11-25T00:21:30;9.80;;;5.47;;
20535;SDS011;10426;49.420;8.390;2022-11-25T00:23:57;12.23;;;5.47;;
20535;SDS011;10426;49.420;8.390;2022-11-25T00:26:25;9.98;;;4.78;;
20535;SDS011;10426;49.420;8.390;2022-11-25T00:28:53;9.80;;;5.30;;
20535;SDS011;10426;49.420;8.390;2022-11-25T00:31:23;9.73;;;5.03;;
20535;SDS011;10426;49.420;8.390;2022-11-25T00:33:50;11.88;;;5.18;;
20535;SDS011;10426;49.420;8.390;2022-11-25T00:36:19;11.50;;;5.43;;
20535;SDS011;10426;49.420;8.390;2022-11-25T00:38:46;13.65;;;5.53;;
20535;SDS011;10426;49.420;8.390;2022-11-25T00:41:13;13.50;;;5.32;;
20535;SDS011;10426;49.420;8.390;2022-11-25T00:43:58;10.13;;;4.90;;
20535;SDS011;10426;49.420;8.390;2022-11-25T00:46:42;12.48;;;5.43;;
20535;SDS011;10426;49.420;8.390;2022-11-25T00:49:09;7.50;;;4.82;;
20535;SDS011;10426;49.420;8.390;2022-11-25T00:51:36;10.77;;;5.03;;
20535;SDS011;10426;49.420;8.390;2022-11-25T00:54:03;14.10;;;5.32;;
20535;SDS011;10426;49.420;8.390;2022-11-25T00:56:29;12.15;;;5.22;;
20535;SDS011;10426;49.420;8.390;2022-11-25T00:58:56;9.80;;;5.63;;
20535;SDS011;10426;49.420;8.390;2022-11-25T01:01:25;9.73;;;5.13;;
20535;SDS011;10426;49.420;8.390;2022-11-25T01:03:52;11.23;;;5.40;;
20535;SDS011;10426;49.420;8.390;2022-11-25T01:06:19;10.40;;;5.10;;
20535;SDS011;10426;49.420;8.390;2022-11-25T01:08:46;24.30;;;11.43;;
20535;SDS011;10426;49.420;8.390;2022-11-25T01:11:13;41.55;;;16.40;;
20535;SDS011;10426;49.420;8.390;2022-11-25T01:13:40;36.53;;;15.07;;
20535;SDS011;10426;49.420;8.390;2022-11-25T01:16:09;26.00;;;11.93;;
20535;SDS011;10426;49.420;8.390;2022-11-25T01:18:37;22.23;;;10.10;;
20535;SDS011;10426;49.420;8.390;2022-11-25T01:21:05;22.80;;;9.93;;
20535;SDS011;10426;49.420;8.390;2022-11-25T01:23:31;16.40;;;7.88;;
20535;SDS011;10426;49.420;8.390;2022-11-25T01:26:00;13.68;;;6.50;;
20535;SDS011;10426;49.420;8.390;2022-11-25T01:28:27;10.30;;;5.30;;
20535;SDS011;10426;49.420;8.390;2022-11-25T01:30:58;9.10;;;4.90;;
20535;SDS011;10426;49.420;8.390;2022-11-25T01:33:24;9.93;;;5.30;;
20535;SDS011;10426;49.420;8.390;2022-11-25T01:35:52;10.88;;;4.90;;
20535;SDS011;10426;49.420;8.390;2022-11-25T01:38:19;12.48;;;5.30;;
20535;SDS011;10426;49.420;8.390;2022-11-25T01:40:46;12.35;;;5.60;;
20535;SDS011;10426;49.420;8.390;2022-11-25T01:43:13;9.15;;;5.40;;
20535;SDS011;10426;49.420;8.390;2022-11-25T01:45:40;9.85;;;5.40;;
20535;SDS011;10426;49.420;8.390;2022-11-25T01:48:10;9.90;;;5.57;;
20535;SDS011;10426;49.420;8.390;2022-11-25T01:50:37;11.07;;;4.82;;
20535;SDS011;10426;49.420;8.390;2022-11-25T01:53:06;9.13;;;4.60;;
20535;SDS011;10426;49.420;8.390;2022-11-25T01:55:39;9.30;;;4.55;;
20535;SDS011;10426;49.420;8.390;2022-11-25T01:58:07;10.82;;;5.10;;
20535;SDS011;10426;49.420;8.390;2022-11-25T02:00:35;8.15;;;4.55;;
20535;SDS011;10426;49.420;8.390;2022-11-25T02:03:03;9.65;;;4.95;;
20535;SDS011;10426;49.420;8.390;2022-11-25T02:05:35;9.05;;;4.68;;
20535;SDS011;10426;49.420;8.390;2022-11-25T02:08:03;11.18;;;4.97;;
20535;SDS011;10426;49.420;8.390;2022-11-25T02:10:32;9.82;;;4.93;;
20535;SDS011;10426;49.420;8.390;2022-11-25T02:13:00;10.77;;;5.20;;
20535;SDS011;10426;49.420;8.390;2022-11-25T02:15:27;9.20;;;4.60;;
20535;SDS011;10426;49.420;8.390;2022-11-25T02:17:55;8.90;;;4.72;;
20535;SDS011;10426;49.420;8.390;2022-11-25T02:20:23;10.63;;;4.82;;
20535;SDS011;10426;49.420;8.390;2022-11-25T02:22:52;10.65;;;5.03;;
20535;SDS011;10426;49.420;8.390;2022-11-25T02:25:23;8.88;;;4.70;;
20535;SDS011;10426;49.420;8.390;2022-11-25T02:27:52;10.15;;;4.70;;
20535;SDS011;10426;49.420;8.390;2022-11-25T02:30:20;9.05;;;4.32;;
20535;SDS011;10426;49.420;8.390;2022-11-25T02:32:47;7.05;;;4.53;;
20535;SDS011;10426;49.420;8.390;2022-11-25T02:35:28;9.73;;;5.07;;
20535;SDS011;10426;49.420;8.390;2022-11-25T02:37:56;9.27;;;4.53;;
20535;SDS011;10426;49.420;8.390;2022-11-25T02:40:25;8.75;;;4.50;;
20535;SDS011;10426;49.420;8.390;2022-11-25T02:42:52;8.95;;;4.32;;
20535;SDS011;10426;49.420;8.390;2022-11-25T02:45:21;10.15;;;4.40;;
20535;SDS011;10426;49.420;8.390;2022-11-25T02:47:50;8.88;;;4.50;;
20535;SDS011;10426;49.420;8.390;2022-11-25T02:50:17;6.77;;;4.20;;
20535;SDS011;10426;49.420;8.390;2022-11-25T02:52:43;8.73;;;4.53;;
20535;SDS011;10426;49.420;8.390;2022-11-25T02:55:10;9.75;;;4.75;;
20535;SDS011;10426;49.420;8.390;2022-11-25T02:57:38;12.07;;;4.72;;
20535;SDS011;10426;49.420;8.390;2022-11-25T03:00:05;9.27;;;4.73;;
20535;SDS011;10426;49.420;8.390;2022-11-25T03:02:32;8.48;;;4.50;;
20535;SDS011;10426;49.420;8.390;2022-11-25T03:04:59;8.73;;;4.90;;
20535;SDS011;10426;49.420;8.390;2022-11-25T03:07:26;10.02;;;4.95;;
20535;SDS011;10426;49.420;8.390;2022-11-25T03:09:52;8.10;;;4.55;;
20535;SDS011;10426;49.420;8.390;2022-11-25T03:12:19;6.95;;;4.50;;
20535;SDS011;10426;49.420;8.390;2022-11-25T03:14:47;8.13;;;4.72;;
20535;SDS011;10426;49.420;8.390;2022-11-25T03:17:14;7.57;;;4.28;;
20535;SDS011;10426;49.420;8.390;2022-11-25T03:19:41;7.70;;;4.35;;
20535;SDS011;10426;49.420;8.390;2022-11-25T03:22:08;10.43;;;4.90;;
20535;SDS011;10426;49.420;8.390;2022-11-25T03:24:35;8.18;;;4.25;;
20535;SDS011;10426;49.420;8.390;2022-11-25T03:27:02;8.10;;;4.78;;
20535;SDS011;10426;49.420;8.390;2022-11-25T03:29:29;6.88;;;4.68;;
20535;SDS011;10426;49.420;8.390;2022-11-25T03:31:57;8.55;;;4.95;;
20535;SDS011;10426;49.420;8.390;2022-11-25T03:34:24;7.33;;;4.73;;
20535;SDS011;10426;49.420;8.390;2022-11-25T03:36:51;7.85;;;4.60;;
20535;SDS011;10426;49.420;8.390;2022-11-25T03:39:18;10.27;;;4.97;;
20535;SDS011;10426;49.420;8.390;2022-11-25T03:41:44;7.35;;;4.32;;
20535;SDS011;10426;49.420;8.390;2022-11-25T03:44:12;7.50;;;4.85;;
20535;SDS011;10426;49.420;8.390;2022-11-25T03:46:40;7.07;;;4.60;;
20535;SDS011;10426;49.420;8.390;2022-11-25T03:49:08;9.30;;;4.78;;
20535;SDS011;10426;49.420;8.390;2022-11-25T03:51:35;7.43;;;4.93;;
20535;SDS011;10426;49.420;8.390;2022-11-25T03:54:02;7.60;;;4.40;;
20535;SDS011;10426;49.420;8.390;2022-11-25T03:56:28;7.53;;;4.40;;
20535;SDS011;10426;49.420;8.390;2022-11-25T03:58:56;9.52;;;4.57;;
20535;SDS011;10426;49.420;8.390;2022-11-25T04:01:23;8.73;;;4.73;;
20535;SDS011;10426;49.420;8.390;2022-11-25T04:03:49;7.03;;;4.40;;
20535;SDS011;10426;49.420;8.390;2022-11-25T04:06:17;6.82;;;4.30;;
20535;SDS011;10426;49.420;8.390;2022-11-25T04:08:48;6.32;;;4.43;;
20535;SDS011;10426;49.420;8.390;2022-11-25T04:11:14;8.07;;;4.60;;
20535;SDS011;10426;49.420;8.390;2022-11-25T04:13:42;7.22;;;4.60;;
20535;SDS011;10426;49.420;8.390;2022-11-25T04:16:13;8.23;;;4.68;;
20535;SDS011;10426;49.420;8.390;2022-11-25T04:18:41;8.57;;;4.47;;
20535;SDS011;10426;49.420;8.390;2022-11-25T04:21:08;8.43;;;4.38;;
20535;SDS011;10426;49.420;8.390;2022-11-25T04:23:36;5.80;;;4.35;;
20535;SDS011;10426;49.420;8.390;2022-11-25T04:26:03;7.05;;;4.30;;
20535;SDS011;10426;49.420;8.390;2022-11-25T04:28:30;7.15;;;4.30;;
20535;SDS011;10426;49.420;8.390;2022-11-25T04:30:56;7.80;;;4.43;;
20535;SDS011;10426;49.420;8.390;2022-11-25T04:33:23;6.82;;;3.88;;
20535;SDS011;10426;49.420;8.390;2022-11-25T04:35:50;5.97;;;4.30;;
20535;SDS011;10426;49.420;8.390;2022-11-25T04:38:16;7.97;;;4.15;;
20535;SDS011;10426;49.420;8.390;2022-11-25T04:40:46;7.40;;;4.30;;
20535;SDS011;10426;49.420;8.390;2022-11-25T04:43:13;7.32;;;4.22;;
20535;SDS011;10426;49.420;8.390;2022-11-25T04:45:39;6.90;;;4.25;;
20535;SDS011;10426;49.420;8.390;2022-11-25T04:48:06;8.90;;;4.27;;
20535;SDS011;10426;49.420;8.390;2022-11-25T04:50:33;6.18;;;3.97;;
20535;SDS011;10426;49.420;8.390;2022-11-25T04:52:59;7.10;;;4.40;;
20535;SDS011;10426;49.420;8.390;2022-11-25T04:55:26;7.70;;;4.25;;
20535;SDS011;10426;49.420;8.390;2022-11-25T04:57:54;7.57;;;3.95;;
20535;SDS011;10426;49.420;8.390;2022-11-25T05:00:21;5.82;;;3.70;;
20535;SDS011;10426;49.420;8.390;2022-11-25T05:02:47;7.53;;;4.00;;
20535;SDS011;10426;49.420;8.390;2022-11-25T05:05:14;6.68;;;4.35;;
20535;SDS011;10426;49.420;8.390;2022-11-25T05:07:40;7.30;;;4.50;;
20535;SDS011;10426;49.420;8.390;2022-11-25T05:10:07;9.10;;;4.75;;
20535;SDS011;10426;49.420;8.390;2022-11-25T05:12:34;6.45;;;4.15;;
20535;SDS011;10426;49.420;8.390;2022-11-25T05:15:03;6.63;;;3.90;;
20535;SDS011;10426;49.420;8.390;2022-11-25T05:17:30;5.78;;;4.18;;
20535;SDS011;10426;49.420;8.390;2022-11-25T05:19:57;9.13;;;4.10;;
20535;SDS011;10426;49.420;8.390;2022-11-25T05:22:24;6.32;;;3.78;;
20535;SDS011;10426;49.420;8.390;2022-11-25T05:24:51;9.38;;;4.25;;
20535;SDS011;10426;49.420;8.390;2022-11-25T05:27:18;8.25;;;4.18;;
20535;SDS011;10426;49.420;8.390;2022-11-25T05:29:45;8.10;;;4.30;;
20535;SDS011;10426;49.420;8.390;2022-11-25T05:32:13;4.63;;;3.75;;
20535;SDS011;10426;49.420;8.390;2022-11-25T05:34:40;7.70;;;3.90;;
20535;SDS011;10426;49.420;8.390;2022-11-25T05:37:08;5.28;;;3.90;;
20535;SDS011;10426;49.420;8.390;2022-11-25T05:39:35;7.38;;;4.05;;
20535;SDS011;10426;49.420;8.390;2022-11-25T05:42:01;5.55;;;3.65;;
20535;SDS011;10426;49.420;8.390;2022-11-25T05:44:28;6.63;;;4.00;;
20535;SDS011;10426;49.420;8.390;2022-11-25T05:46:55;5.65;;;3.72;;
20535;SDS011;10426;49.420;8.390;2022-11-25T05:49:23;6.45;;;3.75;;
20535;SDS011;10426;49.420;8.390;2022-11-25T05:51:50;6.30;;;3.85;;
20535;SDS011;10426;49.420;8.390;2022-11-25T05:54:17;6.60;;;4.30;;
20535;SDS011;10426;49.420;8.390;2022-11-25T05:56:45;5.38;;;3.95;;
20535;SDS011;10426;49.420;8.390;2022-11-25T05:59:11;6.87;;;3.97;;
20535;SDS011;10426;49.420;8.390;2022-11-25T06:01:38;7.35;;;4.13;;
20535;SDS011;10426;49.420;8.390;2022-11-25T06:04:05;7.47;;;4.00;;
20535;SDS011;10426;49.420;8.390;2022-11-25T06:06:33;5.90;;;3.83;;
20535;SDS011;10426;49.420;8.390;2022-11-25T06:08:59;7.95;;;4.45;;
20535;SDS011;10426;49.420;8.390;2022-11-25T06:11:26;6.78;;;4.05;;
20535;SDS011;10426;49.420;8.390;2022-11-25T06:13:54;6.25;;;4.10;;
20535;SDS011;10426;49.420;8.390;2022-11-25T06:16:22;7.68;;;3.90;;
20535;SDS011;10426;49.420;8.390;2022-11-25T06:18:49;6.73;;;4.03;;
20535;SDS011;10426;49.420;8.390;2022-11-25T06:21:16;7.23;;;4.07;;
20535;SDS011;10426;49.420;8.390;2022-11-25T06:23:44;6.73;;;4.40;;
20535;SDS011;10426;49.420;8.390;2022-11-25T06:26:11;7.38;;;4.30;;
20535;SDS011;10426;49.420;8.390;2022-11-25T06:28:38;8.13;;;4.82;;
20535;SDS011;10426;49.420;8.390;2022-11-25T06:31:06;7.13;;;4.40;;
20535;SDS011;10426;49.420;8.390;2022-11-25T06:33:33;8.25;;;4.40;;
20535;SDS011;10426;49.420;8.390;2022-11-25T06:36:00;8.47;;;4.80;;
20535;SDS011;10426;49.420;8.390;2022-11-25T06:38:27;7.15;;;4.68;;
20535;SDS011;10426;49.420;8.390;2022-11-25T06:40:59;7.45;;;4.60;;
20535;SDS011;10426;49.420;8.390;2022-11-25T06:43:26;7.07;;;4.40;;
20535;SDS011;10426;49.420;8.390;2022-11-25T06:45:53;6.93;;;4.70;;
20535;SDS011;10426;49.420;8.390;2022-11-25T06:48:19;7.43;;;4.60;;
20535;SDS011;10426;49.420;8.390;2022-11-25T06:50:53;9.63;;;4.88;;
20535;SDS011;10426;49.420;8.390;2022-11-25T06:53:20;7.53;;;4.70;;
20535;SDS011;10426;49.420;8.390;2022-11-25T06:55:47;9.30;;;4.90;;
20535;SDS011;10426;49.420;8.390;2022-11-25T06:58:15;6.57;;;4.40;;
20535;SDS011;10426;49.420;8.390;2022-11-25T07:00:41;9.23;;;5.10;;
20535;SDS011;10426;49.420;8.390;2022-11-25T07:03:09;7.77;;;5.00;;
20535;SDS011;10426;49.420;8.390;2022-11-25T07:05:36;7.07;;;4.78;;
20535;SDS011;10426;49.420;8.390;2022-11-25T07:08:03;9.23;;;5.30;;
20535;SDS011;10426;49.420;8.390;2022-11-25T07:10:30;8.27;;;5.50;;
20535;SDS011;10426;49.420;8.390;2022-11-25T07:12:59;8.25;;;5.03;;
20535;SDS011;10426;49.420;8.390;2022-11-25T07:15:27;8.70;;;5.40;;
20535;SDS011;10426;49.420;8.390;2022-11-25T07:17:53;7.93;;;5.05;;
20535;SDS011;10426;49.420;8.390;2022-11-25T07:20:20;7.57;;;4.82;;
20535;SDS011;10426;49.420;8.390;2022-11-25T07:22:48;9.23;;;5.13;;
20535;SDS011;10426;49.420;8.390;2022-11-25T07:25:15;11.07;;;7.83;;
20535;SDS011;10426;49.420;8.390;2022-11-25T07:27:41;15.50;;;10.07;;
20535;SDS011;10426;49.420;8.390;2022-11-25T07:30:08;36.75;;;26.05;;
20535;SDS011;10426;49.420;8.390;2022-11-25T07:32:36;55.63;;;38.65;;
20535;SDS011;10426;49.420;8.390;2022-11-25T07:35:03;33.20;;;25.00;;
20535;SDS011;10426;49.420;8.390;2022-11-25T07:37:30;24.45;;;17.88;;
20535;SDS011;10426;49.420;8.390;2022-11-25T07:39:57;21.80;;;14.05;;
20535;SDS011;10426;49.420;8.390;2022-11-25T07:42:24;11.10;;;7.05;;
20535;SDS011;10426;49.420;8.390;2022-11-25T07:44:51;16.60;;;13.25;;
20535;SDS011;10426;49.420;8.390;2022-11-25T07:47:17;23.88;;;19.23;;
20535;SDS011;10426;49.420;8.390;2022-11-25T07:49:46;10.00;;;7.57;;
20535;SDS011;10426;49.420;8.390;2022-11-25T07:52:12;10.63;;;6.68;;
20535;SDS011;10426;49.420;8.390;2022-11-25T07:54:39;8.55;;;6.03;;
20535;SDS011;10426;49.420;8.390;2022-11-25T07:57:06;8.10;;;5.20;;
20535;SDS011;10426;49.420;8.390;2022-11-25T07:59:32;7.93;;;5.00;;
20535;SDS011;10426;49.420;8.390;2022-11-25T08:02:00;9.85;;;5.30;;
20535;SDS011;10426;49.420;8.390;2022-11-25T08:04:27;8.38;;;5.35;;
20535;SDS011;10426;49.420;8.390;2022-11-25T08:06:55;9.15;;;5.10;;
20535;SDS011;10426;49.420;8.390;2022-11-25T08:09:22;6.68;;;4.60;;
20535;SDS011;10426;49.420;8.390;2022-11-25T08:11:50;7.78;;;5.50;;
20535;SDS011;10426;49.420;8.390;2022-11-25T08:14:17;7.68;;;5.13;;
20535;SDS011;10426;49.420;8.390;2022-11-25T08:16:44;8.07;;;4.90;;
20535;SDS011;10426;49.420;8.390;2022-11-25T08:19:11;8.18;;;4.72;;
20535;SDS011;10426;49.420;8.390;2022-11-25T08:21:39;8.50;;;4.75;;
20535;SDS011;10426;49.420;8.390;2022-11-25T08:24:07;8.43;;;5.18;;
20535;SDS011;10426;49.420;8.390;2022-11-25T08:26:35;8.20;;;4.97;;
20535;SDS011;10426;49.420;8.390;2022-11-25T08:29:02;7.45;;;5.15;;
20535;SDS011;10426;49.420;8.390;2022-11-25T08:31:30;8.60;;;5.30;;
20535;SDS011;10426;49.420;8.390;2022-11-25T08:33:58;8.60;;;5.25;;
20535;SDS011;10426;49.420;8.390;2022-11-25T08:36:25;8.27;;;5.10;;
20535;SDS011;10426;49.420;8.390;2022-11-25T08:38:53;7.60;;;5.20;;
20535;SDS011;10426;49.420;8.390;2022-11-25T08:41:24;9.43;;;5.00;;
20535;SDS011;10426;49.420;8.390;2022-11-25T08:43:53;8.57;;;4.85;;
20535;SDS011;10426;49.420;8.390;2022-11-25T08:46:20;7.78;;;5.63;;
20535;SDS011;10426;49.420;8.390;2022-11-25T08:48:47;8.73;;;5.18;;
20535;SDS011;10426;49.420;8.390;2022-11-25T08:51:15;7.63;;;4.50;;
20535;SDS011;10426;49.420;8.390;2022-11-25T08:53:43;10.80;;;5.50;;
20535;SDS011;10426;49.420;8.390;2022-11-25T08:56:09;5.38;;;4.07;;
20535;SDS011;10426;49.420;8.390;2022-11-25T08:58:38;8.23;;;4.17;;
20535;SDS011;10426;49.420;8.390;2022-11-25T09:01:05;8.13;;;4.45;;
20535;SDS011;10426;49.420;8.390;2022-11-25T09:03:32;6.13;;;3.90;;
20535;SDS011;10426;49.420;8.390;2022-11-25T09:05:59;6.03;;;3.80;;
20535;SDS011;10426;49.420;8.390;2022-11-25T09:08:26;14.45;;;6.57;;
20535;SDS011;10426;49.420;8.390;2022-11-25T09:10:53;10.10;;;4.70;;
20535;SDS011;10426;49.420;8.390;2022-11-25T09:13:20;14.00;;;6.63;;
20535;SDS011;10426;49.420;8.390;2022-11-25T09:15:48;14.95;;;6.93;;
20535;SDS011;10426;49.420;8.390;2022-11-25T09:18:14;10.70;;;5.20;;
20535;SDS011;10426;49.420;8.390;2022-11-25T09:20:44;6.63;;;3.80;;
20535;SDS011;10426;49.420;8.390;2022-11-25T09:23:11;5.65;;;3.70;;
20535;SDS011;10426;49.420;8.390;2022-11-25T09:25:38;7.15;;;3.85;;
20535;SDS011;10426;49.420;8.390;2022-11-25T09:28:05;7.35;;;3.83;;
20535;SDS011;10426;49.420;8.390;2022-11-25T09:30:31;5.70;;;3.60;;
20535;SDS011;10426;49.420;8.390;2022-11-25T09:33:00;6.45;;;3.90;;
20535;SDS011;10426;49.420;8.390;2022-11-25T09:35:26;5.88;;;3.63;;
20535;SDS011;10426;49.420;8.390;2022-11-25T09:37:53;6.80;;;3.10;;
20535;SDS011;10426;49.420;8.390;2022-11-25T09:40:20;6.38;;;3.55;;
20535;SDS011;10426;49.420;8.390;2022-11-25T09:42:53;7.97;;;3.60;;
20535;SDS011;10426;49.420;8.390;2022-11-25T09:45:43;5.20;;;3.35;;
20535;SDS011;10426;49.420;8.390;2022-11-25T09:48:35;6.10;;;3.50;;
20535;SDS011;10426;49.420;8.390;2022-11-25T09:51:08;6.00;;;3.65;;
20535;SDS011;10426;49.420;8.390;2022-11-25T09:53:41;6.70;;;3.83;;
20535;SDS011;10426;49.420;8.390;2022-11-25T09:56:10;5.68;;;3.53;;
20535;SDS011;10426;49.420;8.390;2022-11-25T09:58:39;10.48;;;4.18;;
20535;SDS011;10426;49.420;8.390;2022-11-25T10:01:10;6.03;;;3.97;;
20535;SDS011;10426;49.420;8.390;2022-11-25T10:03:42;5.28;;;3.60;;
20535;SDS011;10426;49.420;8.390;2022-11-25T10:06:11;8.63;;;3.72;;
20535;SDS011;10426;49.420;8.390;2022-11-25T10:08:40;5.97;;;3.85;;
20535;SDS011;10426;49.420;8.390;2022-11-25T10:11:13;6.28;;;3.45;;
20535;SDS011;10426;49.420;8.390;2022-11-25T10:13:43;6.07;;;3.85;;
20535;SDS011;10426;49.420;8.390;2022-11-25T10:16:14;6.60;;;3.55;;
20535;SDS011;10426;49.420;8.390;2022-11-25T10:18:50;6.57;;;3.70;;
20535;SDS011;10426;49.420;8.390;2022-11-25T10:21:19;5.25;;;3.53;;
20535;SDS011;10426;49.420;8.390;2022-11-25T10:23:45;6.85;;;3.50;;
20535;SDS011;10426;49.420;8.390;2022-11-25T10:26:13;6.13;;;3.60;;
20535;SDS011;10426;49.420;8.390;2022-11-25T10:28:40;6.68;;;3.63;;
20535;SDS011;10426;49.420;8.390;2022-11-25T10:31:11;7.13;;;3.50;;
20535;SDS011;10426;49.420;8.390;2022-11-25T10:33:43;7.35;;;3.90;;
20535;SDS011;10426;49.420;8.390;2022-11-25T10:36:13;6.38;;;3.58;;
20535;SDS011;10426;49.420;8.390;2022-11-25T10:38:42;7.97;;;4.03;;
20535;SDS011;10426;49.420;8.390;2022-11-25T10:41:11;6.03;;;3.42;;
20535;SDS011;10426;49.420;8.390;2022-11-25T10:43:41;6.70;;;3.90;;
20535;SDS011;10426;49.420;8.390;2022-11-25T10:46:09;5.95;;;3.72;;
20535;SDS011;10426;49.420;8.390;2022-11-25T10:48:44;8.35;;;3.75;;
20535;SDS011;10426;49.420;8.390;2022-11-25T10:51:16;6.40;;;3.60;;
20535;SDS011;10426;49.420;8.390;2022-11-25T10:56:25;8.80;;;4.32;;
20535;SDS011;10426;49.420;8.390;2022-11-25T10:58:52;5.00;;;3.95;;
20535;SDS011;10426;49.420;8.390;2022-11-25T11:01:20;7.88;;;4.13;;
20535;SDS011;10426;49.420;8.390;2022-11-25T11:03:50;6.78;;;3.78;;
20535;SDS011;10426;49.420;8.390;2022-11-25T11:06:28;8.43;;;4.43;;
20535;SDS011;10426;49.420;8.390;2022-11-25T11:08:56;6.45;;;4.00;;
20535;SDS011;10426;49.420;8.390;2022-11-25T11:11:23;7.40;;;4.00;;
20535;SDS011;10426;49.420;8.390;2022-11-25T11:13:56;5.75;;;3.60;;
20535;SDS011;10426;49.420;8.390;2022-11-25T11:16:25;7.78;;;3.60;;
20535;SDS011;10426;49.420;8.390;2022-11-25T11:18:53;5.80;;;3.35;;
20535;SDS011;10426;49.420;8.390;2022-11-25T11:21:21;6.57;;;3.40;;
20535;SDS011;10426;49.420;8.390;2022-11-25T11:23:51;6.75;;;3.45;;
20535;SDS011;10426;49.420;8.390;2022-11-25T11:26:20;6.70;;;3.63;;
20535;SDS011;10426;49.420;8.390;2022-11-25T11:28:55;6.63;;;3.40;;
20535;SDS011;10426;49.420;8.390;2022-11-25T11:31:22;8.57;;;6.40;;
20535;SDS011;10426;49.420;8.390;2022-11-25T11:33:53;6.22;;;3.50;;
20535;SDS011;10426;49.420;8.390;2022-11-25T11:36:29;8.35;;;4.07;;
20535;SDS011;10426;49.420;8.390;2022-11-25T11:39:04;8.67;;;5.00;;
20535;SDS011;10426;49.420;8.390;2022-11-25T11:41:35;12.15;;;4.95;;
20535;SDS011;10426;49.420;8.390;2022-11-25T11:44:10;8.73;;;4.20;;
20535;SDS011;10426;49.420;8.390;2022-11-25T11:46:45;6.35;;;3.80;;
20535;SDS011;10426;49.420;8.390;2022-11-25T11:49:26;6.20;;;3.83;;
20535;SDS011;10426;49.420;8.390;2022-11-25T11:51:58;8.55;;;3.50;;
20535;SDS011;10426;49.420;8.390;2022-11-25T11:54:31;6.33;;;3.63;;
20535;SDS011;10426;49.420;8.390;2022-11-25T11:57:01;6.50;;;3.55;;
20535;SDS011;10426;49.420;8.390;2022-11-25T11:59:33;7.93;;;3.80;;
20535;SDS011;10426;49.420;8.390;2022-11-25T12:02:19;7.32;;;3.75;;
20535;SDS011;10426;49.420;8.390;2022-11-25T12:04:50;6.32;;;3.10;;
20535;SDS011;10426;49.420;8.390;2022-11-25T12:07:19;6.40;;;3.80;;
20535;SDS011;10426;49.420;8.390;2022-11-25T12:09:50;7.30;;;3.58;;
20535;SDS011;10426;49.420;8.390;2022-11-25T12:12:18;6.88;;;3.53;;
20535;SDS011;10426;49.420;8.390;2022-11-25T12:14:47;6.75;;;3.20;;
20535;SDS011;10426;49.420;8.390;2022-11-25T12:17:16;5.67;;;3.10;;
20535;SDS011;10426;49.420;8.390;2022-11-25T12:19:47;5.90;;;3.47;;
20535;SDS011;10426;49.420;8.390;2022-11-25T12:22:17;7.25;;;3.45;;
20535;SDS011;10426;49.420;8.390;2022-11-25T12:24:46;5.43;;;3.10;;
20535;SDS011;10426;49.420;8.390;2022-11-25T12:27:15;8.60;;;3.63;;
20535;SDS011;10426;49.420;8.390;2022-11-25T12:29:44;12.10;;;3.95;;
20535;SDS011;10426;49.420;8.390;2022-11-25T12:32:23;9.87;;;3.90;;
20535;SDS011;10426;49.420;8.390;2022-11-25T12:34:55;8.00;;;3.60;;
20535;SDS011;10426;49.420;8.390;2022-11-25T12:37:26;7.95;;;3.38;;
20535;SDS011;10426;49.420;8.390;2022-11-25T12:39:55;9.45;;;3.53;;
20535;SDS011;10426;49.420;8.390;2022-11-25T12:42:27;10.35;;;3.78;;
20535;SDS011;10426;49.420;8.390;2022-11-25T12:44:56;5.72;;;3.30;;
20535;SDS011;10426;49.420;8.390;2022-11-25T12:47:25;5.87;;;3.20;;
20535;SDS011;10426;49.420;8.390;2022-11-25T12:49:53;6.87;;;2.97;;
20535;SDS011;10426;49.420;8.390;2022-11-25T12:52:28;7.07;;;3.22;;
20535;SDS011;10426;49.420;8.390;2022-11-25T12:55:10;5.07;;;3.13;;
20535;SDS011;10426;49.420;8.390;2022-11-25T13:00:30;5.03;;;2.97;;
20535;SDS011;10426;49.420;8.390;2022-11-25T13:06:05;6.13;;;3.58;;
20535;SDS011;10426;49.420;8.390;2022-11-25T13:08:51;6.93;;;3.15;;
20535;SDS011;10426;49.420;8.390;2022-11-25T13:14:17;5.50;;;3.07;;
20535;SDS011;10426;49.420;8.390;2022-11-25T13:16:50;5.55;;;3.17;;
20535;SDS011;10426;49.420;8.390;2022-11-25T13:19:17;7.03;;;2.97;;
20535;SDS011;10426;49.420;8.390;2022-11-25T13:21:55;7.20;;;3.08;;
20535;SDS011;10426;49.420;8.390;2022-11-25T13:24:27;5.88;;;2.90;;
20535;SDS011;10426;49.420;8.390;2022-11-25T13:26:53;6.45;;;2.92;;
20535;SDS011;10426;49.420;8.390;2022-11-25T13:34:48;7.30;;;2.75;;
20535;SDS011;10426;49.420;8.390;2022-11-25T13:40:11;7.63;;;3.22;;
20535;SDS011;10426;49.420;8.390;2022-11-25T13:42:44;5.00;;;2.95;;
20535;SDS011;10426;49.420;8.390;2022-11-25T13:45:20;10.67;;;3.10;;
20535;SDS011;10426;49.420;8.390;2022-11-25T13:47:50;6.30;;;3.10;;
20535;SDS011;10426;49.420;8.390;2022-11-25T13:50:19;10.70;;;3.42;;
20535;SDS011;10426;49.420;8.390;2022-11-25T13:52:48;5.80;;;2.75;;
20535;SDS011;10426;49.420;8.390;2022-11-25T13:55:22;6.75;;;3.10;;
20535;SDS011;10426;49.420;8.390;2022-11-25T13:57:59;4.97;;;2.92;;
20535;SDS011;10426;49.420;8.390;2022-11-25T14:06:00;5.93;;;2.73;;
20535;SDS011;10426;49.420;8.390;2022-11-25T14:08:32;6.43;;;3.47;;
20535;SDS011;10426;49.420;8.390;2022-11-25T14:13:54;4.40;;;3.00;;
20535;SDS011;10426;49.420;8.390;2022-11-25T14:16:36;5.60;;;3.28;;
20535;SDS011;10426;49.420;8.390;2022-11-25T14:19:17;7.65;;;3.20;;
20535;SDS011;10426;49.420;8.390;2022-11-25T14:21:54;5.03;;;2.70;;
20535;SDS011;10426;49.420;8.390;2022-11-25T14:24:27;5.95;;;2.90;;
20535;SDS011;10426;49.420;8.390;2022-11-25T14:26:55;6.80;;;3.10;;
20535;SDS011;10426;49.420;8.390;2022-11-25T14:29:24;8.18;;;3.60;;
20535;SDS011;10426;49.420;8.390;2022-11-25T14:31:56;6.47;;;3.20;;
20535;SDS011;10426;49.420;8.390;2022-11-25T14:34:26;7.07;;;3.33;;
20535;SDS011;10426;49.420;8.390;2022-11-25T14:36:58;6.55;;;3.53;;
20535;SDS011;10426;49.420;8.390;2022-11-25T14:39:27;5.15;;;2.97;;
20535;SDS011;10426;49.420;8.390;2022-11-25T14:41:57;9.02;;;3.90;;
20535;SDS011;10426;49.420;8.390;2022-11-25T14:44:26;9.10;;;3.95;;
20535;SDS011;10426;49.420;8.390;2022-11-25T14:46:55;7.63;;;3.88;;
20535;SDS011;10426;49.420;8.390;2022-11-25T14:49:23;8.45;;;2.97;;
20535;SDS011;10426;49.420;8.390;2022-11-25T14:51:50;7.22;;;3.35;;
20535;SDS011;10426;49.420;8.390;2022-11-25T14:54:20;6.50;;;2.88;;
20535;SDS011;10426;49.420;8.390;2022-11-25T14:56:47;8.30;;;3.15;;
20535;SDS011;10426;49.420;8.390;2022-11-25T14:59:14;5.60;;;3.00;;
20535;SDS011;10426;49.420;8.390;2022-11-25T15:01:51;5.85;;;2.95;;
20535;SDS011;10426;49.420;8.390;2022-11-25T15:04:19;6.97;;;3.20;;
20535;SDS011;10426;49.420;8.390;2022-11-25T15:06:48;8.05;;;3.30;;
20535;SDS011;10426;49.420;8.390;2022-11-25T15:09:16;5.72;;;3.25;;
20535;SDS011;10426;49.420;8.390;2022-11-25T15:11:45;6.40;;;3.03;;
20535;SDS011;10426;49.420;8.390;2022-11-25T15:14:14;8.88;;;3.28;;
20535;SDS011;10426;49.420;8.390;2022-11-25T15:16:44;7.18;;;2.60;;
20535;SDS011;10426;49.420;8.390;2022-11-25T15:19:13;9.20;;;3.30;;
20535;SDS011;10426;49.420;8.390;2022-11-25T15:21:41;6.82;;;2.75;;
20535;SDS011;10426;49.420;8.390;2022-11-25T15:24:16;8.47;;;3.30;;